Terminal Aerodrome Forecast
Issued by NWS Lubbock, TX

Home | Current Version | Previous Version | Text Only | Print | Product List | Glossary On
Versions: 1 2 3 4 5 6 7 8 9 10 11 12 13 14 15 16 17 18 19 20 21 22 23 24 25 26 27 28 29 30 31 32 33 34 35 36
000
FTUS44 KLUB 162000 AAB
TAFLBB
TAF AMD
KLBB 162026Z 1620/1718 18009KT P6SM VCTS SCT030 BKN060CB
      TEMPO 1621/1623 -SHRA BKN030
     FM171100 22010KT P6SM SCT015 BKN050=

USA.gov is the U.S. government's official web portal to all federal, state and local government web resources and services.